Main page
METAR-TAF:

METAR-TAF

Airports :

Al-Hasa, Saudi Arabia

Al-Ahsa International Airport

latitude: 25-18N, longitude: 049-29E, elevation: 179 m

Current weather observation

The report was made 23 minutes ago, at 07:00 UTC
Wind 14 kt from the West/Northwest
Temperature 43°C
Humidity 17%
Pressure 1002 hPa
Visibility 10 km or more
no clouds below 1500 m and no cumulonimbus

METAR: OEAH 190700Z 29014KT CAVOK 43/13 Q1002 NOSIG

Time: 10:23 (07:23 UTC)

Forecast

The report was made 8 hours and 23 minutes ago, at 23:00 UTC
Forecast valid from 19 at 00 UTC to 20 at 06 UTC
Wind 3 kt from variable directions
Visibility: 6000 m
Temporary
from 19 at 00 UTC to 19 at 06 UTC
Visibility: 4000 m
haze
Becoming
from 19 at 06 UTC to 19 at 08 UTC
Wind 12 kt from the East/Northeast

TAF: OEAH 182300Z 1900/2006 VRB03KT 6000 NSC TEMPO 1900/1906 4000 HZ BECMG 1906/1908 06012KT

Weather observations and forecasts of more than 4000 airports (METAR and TAF reports).

The available stations are represented by yellow and red dots on the map.

Hover mouse over dot to see the name of the station.

Then click to see weather observations and forecasts.

To change the map : click on the green buttons with a black cross to zoom in, on the green button with a dash to zoom out, or on the green arrows for adjacent maps.


METAR-TAF: